Time;durP1;ratioP1;P1;durP2;ratioP2;P2;SDS_P1;SDS_P2;PMS_P1;PMS_P2;Temp;Humidity;BMP_temperature;BMP_pressure;BME280_temperature;BME280_humidity;BME280_pressure;Samples;Min_cycle;Max_cycle;Signal;HPM_P1;HPM_P2
2021/09/03 00:02:02;;;;;;;3.83;1.70;;;;;;;11.32;100.00;99293.09;1662644;85;21459;-68
2021/09/03 00:04:30;;;;;;;2.37;1.65;;;;;;;11.29;100.00;99295.75;1666898;85;21467;-67
2021/09/03 00:07:00;;;;;;;2.95;1.80;;;;;;;11.27;100.00;99292.24;1660782;85;21117;-67
2021/09/03 00:09:29;;;;;;;3.20;1.65;;;;;;;11.25;100.00;99294.46;1662899;86;20879;-66
2021/09/03 00:11:59;;;;;;;4.42;1.52;;;;;;;11.24;100.00;99295.34;1662042;86;21454;-66
2021/09/03 00:14:27;;;;;;;4.58;1.70;;;;;;;11.20;100.00;99282.61;1661166;85;21033;-67
2021/09/03 00:16:58;;;;;;;3.05;1.70;;;;;;;11.19;100.00;99281.30;1684627;84;20995;-66
2021/09/03 00:19:29;;;;;;;2.95;1.92;;;;;;;11.20;100.00;99283.93;1659381;85;20952;-67
2021/09/03 00:21:59;;;;;;;2.55;1.62;;;;;;;11.21;100.00;99291.41;1690613;84;21522;-68
2021/09/03 00:24:32;;;;;;;2.80;1.80;;;;;;;11.21;100.00;99294.05;1643449;85;20958;-67
2021/09/03 00:26:58;;;;;;;3.95;1.80;;;;;;;11.20;100.00;99294.94;1647700;86;21085;-66
2021/09/03 00:29:26;;;;;;;4.90;1.52;;;;;;;11.18;100.00;99290.98;1679641;84;21514;-67
2021/09/03 00:31:55;;;;;;;3.05;1.77;;;;;;;11.16;100.00;99287.48;1690268;84;21132;-67
2021/09/03 00:34:24;;;;;;;2.65;1.70;;;;;;;11.15;100.00;99290.13;1659271;86;21447;-67
2021/09/03 00:36:53;;;;;;;3.95;2.08;;;;;;;11.13;100.00;99292.77;1659110;85;20959;-66
2021/09/03 00:39:22;;;;;;;4.03;1.80;;;;;;;11.12;100.00;99294.98;1660745;86;20995;-69
2021/09/03 00:41:50;;;;;;;2.72;1.72;;;;;;;11.15;100.00;99294.09;1662384;84;21531;-67
2021/09/03 00:44:18;;;;;;;3.37;1.87;;;;;;;11.13;100.00;99299.37;1626660;88;21103;-68
2021/09/03 00:46:47;;;;;;;4.08;1.70;;;;;;;11.11;100.00;99295.87;1648700;86;21420;-66
2021/09/03 00:49:16;;;;;;;3.37;1.50;;;;;;;11.10;100.00;99296.75;1653375;85;20953;-68
2021/09/03 00:51:46;;;;;;;3.20;1.50;;;;;;;11.09;100.00;99297.64;1631483;87;21482;-68
2021/09/03 00:54:16;;;;;;;3.75;1.50;;;;;;;11.09;100.00;99301.59;1686785;85;21516;-68
2021/09/03 00:56:48;;;;;;;5.55;1.47;;;;;;;11.07;100.00;99307.33;1664993;84;21458;-68
2021/09/03 00:59:17;;;;;;;2.00;1.20;;;;;;;11.03;100.00;99302.95;1656945;85;20860;-69
2021/09/03 01:01:47;;;;;;;2.90;1.30;;;;;;;11.04;100.00;99308.67;1654407;85;21491;-69
2021/09/03 01:04:18;;;;;;;2.27;1.57;;;;;;;11.04;100.00;99305.59;1661278;85;21355;-70
2021/09/03 01:06:48;;;;;;;2.70;1.70;;;;;;;11.04;100.00;99308.67;1651828;86;21462;-69
2021/09/03 01:09:18;;;;;;;4.20;1.47;;;;;;;11.03;100.00;99306.92;1625579;86;21487;-67
2021/09/03 01:11:48;;;;;;;2.77;1.42;;;;;;;11.02;100.00;99311.77;1618540;87;21533;-67
2021/09/03 01:14:17;;;;;;;3.00;1.40;;;;;;;10.99;100.00;99309.14;1631815;88;21471;-68
2021/09/03 01:16:47;;;;;;;2.50;1.65;;;;;;;10.98;100.00;99312.66;1631993;87;21474;-68
2021/09/03 01:19:16;;;;;;;2.15;1.40;;;;;;;10.95;100.00;99309.59;1632478;87;21020;-67
2021/09/03 01:21:51;;;;;;;2.45;1.40;;;;;;;10.92;100.00;99312.25;1641296;87;21055;-69
2021/09/03 01:24:20;;;;;;;2.62;1.65;;;;;;;10.89;100.00;99317.55;1632247;87;21485;-69
2021/09/03 01:26:49;;;;;;;4.20;1.82;;;;;;;10.90;100.00;99311.83;1636469;87;21024;-69
2021/09/03 01:29:19;;;;;;;2.65;1.47;;;;;;;10.88;100.00;99316.20;1630840;87;21484;-69
2021/09/03 01:31:51;;;;;;;3.12;1.50;;;;;;;10.88;100.00;99318.84;1635125;87;21003;-69
2021/09/03 01:34:19;;;;;;;2.98;1.50;;;;;;;10.87;100.00;99318.41;1636904;87;21100;-67
2021/09/03 01:36:48;;;;;;;2.45;1.60;;;;;;;10.84;100.00;99318.42;1630752;87;21466;-68
2021/09/03 01:39:17;;;;;;;3.02;1.27;;;;;;;10.83;100.00;99316.66;1632929;85;21525;-67
2021/09/03 01:41:48;;;;;;;4.50;1.72;;;;;;;10.81;100.00;99314.48;1642335;85;20980;-69
2021/09/03 01:44:17;;;;;;;10.10;1.80;;;;;;;10.80;100.00;99319.31;1680303;85;20935;-68
2021/09/03 01:46:48;;;;;;;2.92;1.52;;;;;;;10.78;100.00;99317.13;1677261;84;21936;-69
2021/09/03 01:49:18;;;;;;;3.52;1.55;;;;;;;10.77;100.00;99310.09;1648146;86;21464;-69
2021/09/03 01:51:46;;;;;;;2.35;1.52;;;;;;;10.77;100.00;99314.93;1675365;85;20924;-68
2021/09/03 01:54:16;;;;;;;2.75;1.37;;;;;;;10.76;100.00;99313.18;1650422;86;21424;-68
2021/09/03 01:56:46;;;;;;;2.25;1.12;;;;;;;10.73;100.00;99307.47;1642107;85;21483;-69
2021/09/03 01:59:19;;;;;;;3.50;1.42;;;;;;;10.72;100.00;99314.95;1660495;85;21449;-69
2021/09/03 02:01:48;;;;;;;;;;;;;;;10.72;100.00;99320.23;1636138;86;20920;-69
2021/09/03 02:04:17;;;;;;;4.10;1.50;;;;;;;10.69;100.00;99314.97;1616534;88;20485;-69
2021/09/03 02:06:45;;;;;;;2.83;1.30;;;;;;;10.67;100.00;99317.17;1623594;88;21011;-68
2021/09/03 02:09:15;;;;;;;2.60;1.52;;;;;;;10.66;100.00;99318.05;1660211;85;20888;-69
2021/09/03 02:11:45;;;;;;;3.58;1.40;;;;;;;10.68;100.00;99313.66;1657329;85;21970;-70
2021/09/03 02:14:16;;;;;;;2.02;1.30;;;;;;;10.67;100.00;99315.41;1670860;85;21403;-69
2021/09/03 02:16:45;;;;;;;3.42;1.45;;;;;;;10.67;100.00;99320.69;1627470;86;21020;-69
2021/09/03 02:19:13;;;;;;;8.15;1.65;;;;;;;10.66;100.00;99323.33;1613667;87;21036;-69
2021/09/03 02:21:42;;;;;;;3.72;1.60;;;;;;;10.62;100.00;99314.55;1627159;87;21012;-69
2021/09/03 02:24:13;;;;;;;2.70;1.70;;;;;;;10.61;100.00;99319.39;1664309;85;21554;-69
2021/09/03 02:26:41;;;;;;;4.58;1.77;;;;;;;10.60;100.00;99314.13;1668180;85;20947;-69
2021/09/03 02:29:15;;;;;;;5.22;1.30;;;;;;;10.57;100.00;99316.33;1650104;85;21450;-69
2021/09/03 02:31:41;;;;;;;2.77;1.50;;;;;;;10.56;100.00;99318.98;1640881;86;21079;-69
2021/09/03 02:34:10;;;;;;;2.42;1.25;;;;;;;10.57;100.00;99318.09;1671452;85;21462;-69
2021/09/03 02:36:43;;;;;;;3.17;1.35;;;;;;;10.56;100.00;99313.70;1635844;87;22456;-69
2021/09/03 02:39:11;;;;;;;;;;;;;;;10.54;100.00;99314.14;1629438;87;20955;-70
2021/09/03 02:41:40;;;;;;;2.90;1.50;;;;;;;10.51;100.00;99313.72;1641014;85;20487;-70
2021/09/03 02:44:09;;;;;;;3.20;1.60;;;;;;;10.49;100.00;99312.84;1664047;85;21617;-68
2021/09/03 02:46:39;;;;;;;3.35;1.37;;;;;;;10.48;100.00;99307.58;1674970;85;21431;-71
2021/09/03 02:49:09;;;;;;;4.03;1.62;;;;;;;10.47;100.00;99309.34;1657870;85;21451;-70
2021/09/03 02:51:39;;;;;;;3.52;1.50;;;;;;;10.47;100.00;99322.96;1665600;85;20995;-71
2021/09/03 02:54:09;;;;;;;3.92;1.40;;;;;;;10.47;100.00;99321.64;1676608;85;21455;-70
2021/09/03 02:56:40;;;;;;;4.50;1.25;;;;;;;10.49;100.00;99318.13;1668406;84;21033;-69
2021/09/03 02:59:09;;;;;;;9.58;1.50;;;;;;;10.48;100.00;99308.89;1664699;84;21458;-69
2021/09/03 03:01:37;;;;;;;9.85;6.60;;;;;;;10.47;100.00;99314.61;1654974;84;21149;-67
2021/09/03 03:04:05;;;;;;;18.10;8.80;;;;;;;10.46;100.00;99312.86;1647301;86;21458;-70
2021/09/03 03:06:33;;;;;;;14.20;5.30;;;;;;;10.46;100.00;99315.93;1651733;85;20917;-70
2021/09/03 03:09:01;;;;;;;8.25;4.03;;;;;;;10.47;100.00;99320.33;1662549;85;21447;-71
2021/09/03 03:11:31;;;;;;;25.88;17.67;;;;;;;10.49;100.00;99317.24;1658475;86;21447;-69
2021/09/03 03:14:10;;;;;;;8.28;6.12;;;;;;;10.48;100.00;99317.69;1667034;84;21969;-70
2021/09/03 03:16:29;;;;;;;22.95;13.48;;;;;;;10.51;100.00;99324.27;1674472;85;20948;-67
2021/09/03 03:18:57;;;;;;;24.52;14.50;;;;;;;10.55;100.00;99318.54;1659637;86;21502;-68
2021/09/03 03:21:27;;;;;;;10.90;6.55;;;;;;;10.54;100.00;99313.70;1676842;85;20896;-70
2021/09/03 03:23:55;;;;;;;12.98;7.78;;;;;;;10.53;100.00;99314.59;1663382;85;20884;-69
2021/09/03 03:26:23;;;;;;;12.45;7.37;;;;;;;10.52;100.00;99314.16;1655653;85;21080;-70
2021/09/03 03:28:51;;;;;;;7.05;3.10;;;;;;;10.50;100.00;99318.55;1658583;84;20952;-70
2021/09/03 03:31:20;;;;;;;12.75;7.85;;;;;;;10.48;100.00;99311.53;1650788;85;21434;-69
2021/09/03 03:33:49;;;;;;;7.78;5.17;;;;;;;10.44;100.00;99314.63;1656753;85;20915;-73
2021/09/03 03:36:18;;;;;;;8.28;4.83;;;;;;;10.39;100.00;99319.00;1665447;85;20958;-69
2021/09/03 03:38:47;;;;;;;14.07;8.60;;;;;;;10.34;100.00;99314.17;1666137;86;21119;-67
2021/09/03 03:41:15;;;;;;;7.03;4.10;;;;;;;10.27;100.00;99313.31;1664815;85;21050;-67
2021/09/03 03:43:44;;;;;;;8.83;3.40;;;;;;;10.20;100.00;99314.21;1657784;86;21008;-65
2021/09/03 03:46:14;;;;;;;11.53;4.70;;;;;;;10.12;100.00;99316.39;1657029;86;21807;-68
2021/09/03 03:48:43;;;;;;;5.33;2.50;;;;;;;10.06;100.00;99320.80;1654486;85;20900;-67
2021/09/03 03:51:10;;;;;;;7.83;3.40;;;;;;;10.03;100.00;99319.48;1655465;86;21021;-68
2021/09/03 03:53:40;;;;;;;4.85;2.50;;;;;;;10.04;100.00;99322.55;1655826;86;21514;-68
2021/09/03 03:56:09;;;;;;;6.70;2.22;;;;;;;9.99;100.00;99317.73;1655716;86;21451;-68
2021/09/03 03:58:37;;;;;;;6.35;2.55;;;;;;;9.97;100.00;99318.61;1656639;86;20967;-68
2021/09/03 04:01:05;;;;;;;3.15;1.50;;;;;;;9.94;100.00;99324.77;1655513;86;21455;-68
2021/09/03 04:03:34;;;;;;;4.22;1.65;;;;;;;9.94;100.00;99331.79;1655925;86;21213;-68
2021/09/03 04:06:04;;;;;;;3.70;1.67;;;;;;;9.89;100.00;99337.03;1657406;86;21435;-67
2021/09/03 04:08:32;;;;;;;3.80;1.55;;;;;;;9.88;100.00;99327.81;1656729;86;21483;-67
2021/09/03 04:11:01;;;;;;;4.03;1.98;;;;;;;9.88;100.00;99329.13;1657199;85;21444;-68
2021/09/03 04:13:31;;;;;;;5.08;2.42;;;;;;;9.86;100.00;99327.81;1657487;86;21431;-68
2021/09/03 04:15:59;;;;;;;5.50;2.40;;;;;;;9.83;100.00;99331.77;1657484;86;21503;-68
2021/09/03 04:18:27;;;;;;;2.83;2.20;;;;;;;9.82;100.00;99338.35;1655725;86;21435;-68
2021/09/03 04:20:57;;;;;;;4.62;2.05;;;;;;;9.82;100.00;99331.33;1658864;85;21471;-69
2021/09/03 04:23:27;;;;;;;4.28;2.17;;;;;;;9.82;100.00;99338.35;1646480;86;21471;-68
2021/09/03 04:25:55;;;;;;;4.75;2.05;;;;;;;9.84;100.00;99340.55;1657296;86;21471;-67
2021/09/03 04:28:24;;;;;;;3.90;1.95;;;;;;;9.85;100.00;99342.30;1657534;86;21762;-68
2021/09/03 04:30:52;;;;;;;12.98;2.42;;;;;;;9.86;100.00;99338.34;1655628;86;21499;-68
2021/09/03 04:33:20;;;;;;;9.80;2.22;;;;;;;9.86;100.00;99338.34;1689205;85;21065;-68
2021/09/03 04:35:49;;;;;;;4.40;2.00;;;;;;;9.84;100.00;99340.55;1691026;84;21446;-67
2021/09/03 04:38:20;;;;;;;5.33;2.10;;;;;;;9.81;100.00;99341.86;1657492;86;20976;-67
2021/09/03 04:40:49;;;;;;;5.03;1.98;;;;;;;9.81;100.00;99345.37;1655701;85;21427;-67
2021/09/03 04:43:17;;;;;;;5.12;2.20;;;;;;;9.84;100.00;99344.05;1650859;86;20960;-67
2021/09/03 04:45:45;;;;;;;5.62;2.40;;;;;;;9.92;100.00;99338.78;1649872;85;20921;-68
2021/09/03 04:48:14;;;;;;;6.62;2.45;;;;;;;9.96;100.00;99337.50;1639119;86;20926;-67
2021/09/03 04:50:42;;;;;;;4.28;2.50;;;;;;;10.03;100.00;99334.42;1638756;86;20967;-67
2021/09/03 04:53:10;;;;;;;5.28;2.65;;;;;;;10.06;100.00;99337.92;1685150;85;21098;-68
2021/09/03 04:55:38;;;;;;;4.92;2.65;;;;;;;10.13;100.00;99341.88;1686340;85;20915;-68
2021/09/03 04:58:05;;;;;;;14.25;2.50;;;;;;;10.19;100.00;99340.54;1685622;84;20912;-68
2021/09/03 05:00:34;;;;;;;5.10;2.40;;;;;;;10.28;100.00;99340.12;1632332;87;20911;-68
2021/09/03 05:03:01;;;;;;;4.03;2.35;;;;;;;10.38;100.00;99341.85;1662551;86;20932;-68
2021/09/03 05:05:29;;;;;;;4.42;2.30;;;;;;;10.48;100.00;99340.10;1632284;87;21126;-67
2021/09/03 05:07:56;;;;;;;4.20;2.47;;;;;;;10.57;100.00;99341.39;1653083;86;20959;-67
2021/09/03 05:10:25;;;;;;;7.53;2.47;;;;;;;10.68;100.00;99340.03;1652972;86;21079;-67
2021/09/03 05:12:53;;;;;;;3.37;1.85;;;;;;;10.79;100.00;99340.88;1632501;86;20955;-68
2021/09/03 05:15:23;;;;;;;5.92;3.15;;;;;;;10.91;100.00;99332.05;1662609;86;20923;-67
2021/09/03 05:17:52;;;;;;;7.80;4.67;;;;;;;11.06;100.00;99337.70;1632566;86;21496;-68
2021/09/03 05:20:20;;;;;;;6.53;3.85;;;;;;;11.17;100.00;99334.11;1662456;85;20952;-68
2021/09/03 05:22:49;;;;;;;7.08;2.80;;;;;;;11.28;100.00;99334.05;1632482;86;21398;-68
2021/09/03 05:25:17;;;;;;;6.70;2.40;;;;;;;11.39;100.00;99341.94;1662558;86;20904;-68
2021/09/03 05:27:45;;;;;;;4.33;2.35;;;;;;;11.47;100.00;99338.36;1632524;86;20959;-68
2021/09/03 05:30:16;;;;;;;4.25;2.47;;;;;;;11.52;100.00;99339.64;1662480;86;21417;-68
2021/09/03 05:32:46;;;;;;;4.65;1.80;;;;;;;11.56;100.00;99335.65;1632521;87;20903;-67
2021/09/03 05:35:17;;;;;;;4.87;2.33;;;;;;;11.64;100.00;99343.52;1661200;85;21506;-67
2021/09/03 05:37:47;;;;;;;5.20;2.30;;;;;;;11.70;100.00;99337.31;1632487;86;20955;-67
2021/09/03 05:40:16;;;;;;;4.92;2.00;;;;;;;11.76;100.00;99339.46;1662509;85;20955;-68
2021/09/03 05:42:44;;;;;;;6.20;2.52;;;;;;;11.80;100.00;99332.42;1644594;86;21091;-67
2021/09/03 05:45:13;;;;;;;7.05;2.17;;;;;;;11.87;100.00;99335.03;1656890;86;20861;-67
2021/09/03 05:47:45;;;;;;;3.42;2.35;;;;;;;11.98;100.00;99333.17;1657460;85;21000;-67
2021/09/03 05:50:15;;;;;;;3.35;1.82;;;;;;;12.07;100.00;99339.27;1656909;86;20923;-67
2021/09/03 05:52:43;;;;;;;3.17;2.00;;;;;;;12.14;100.00;99331.25;1657268;86;20916;-68
2021/09/03 05:55:11;;;;;;;3.00;1.98;;;;;;;12.24;100.00;99336.89;1656952;85;21116;-68
2021/09/03 05:57:40;;;;;;;3.02;1.60;;;;;;;12.36;100.00;99335.91;1657199;86;20920;-68
2021/09/03 06:00:10;;;;;;;6.03;1.70;;;;;;;12.46;100.00;99335.38;1657191;85;20952;-68
2021/09/03 06:02:38;;;;;;;3.65;2.15;;;;;;;12.54;100.00;99329.10;1657210;86;20935;-67
2021/09/03 06:05:08;;;;;;;6.20;2.10;;;;;;;12.60;100.00;99324.19;1657246;85;20952;-67
2021/09/03 06:07:36;;;;;;;7.05;2.10;;;;;;;12.69;100.00;99333.34;1657497;86;21419;-67
2021/09/03 06:10:06;;;;;;;4.75;1.90;;;;;;;12.79;100.00;99326.20;1656888;86;20959;-67
2021/09/03 06:12:33;;;;;;;3.92;1.90;;;;;;;12.90;100.00;99324.29;1657223;86;21534;-67
2021/09/03 06:15:01;;;;;;;5.78;2.42;;;;;;;12.97;100.00;99327.73;1656981;86;21074;-67
2021/09/03 06:17:30;;;;;;;3.05;1.85;;;;;;;13.05;100.00;99329.83;1657544;85;21004;-68
2021/09/03 06:20:00;;;;;;;5.75;2.20;;;;;;;13.18;100.00;99328.35;1656993;86;21726;-67
2021/09/03 06:22:29;;;;;;;3.55;2.00;;;;;;;13.33;100.00;99331.72;1657092;86;21343;-68
2021/09/03 06:24:56;;;;;;;5.42;2.52;;;;;;;13.47;100.00;99323.98;1656950;85;20955;-68
2021/09/03 06:27:24;;;;;;;4.35;1.90;;;;;;;13.64;100.00;99325.50;1657135;86;21440;-68
2021/09/03 06:29:53;;;;;;;6.20;1.57;;;;;;;13.80;100.00;99325.71;1656948;86;20972;-68
2021/09/03 06:32:23;;;;;;;2.33;1.42;;;;;;;13.97;100.00;99332.94;1657400;86;21737;-68
2021/09/03 06:34:58;;;;;;;2.58;1.40;;;;;;;14.11;100.00;99328.27;1657130;86;21506;-68
2021/09/03 06:37:27;;;;;;;3.33;1.70;;;;;;;14.27;100.00;99326.25;1657250;86;21483;-68
2021/09/03 06:39:55;;;;;;;3.33;1.50;;;;;;;14.44;100.00;99320.66;1657055;86;20916;-68
2021/09/03 06:42:23;;;;;;;2.37;1.37;;;;;;;14.59;100.00;99322.14;1658078;86;20973;-68
2021/09/03 06:44:50;;;;;;;5.35;2.10;;;;;;;14.70;100.00;99317.06;1654929;86;21175;-67
2021/09/03 06:47:18;;;;;;;5.30;1.50;;;;;;;14.83;100.00;99316.81;1655113;86;20948;-67
2021/09/03 06:49:46;;;;;;;2.87;1.10;;;;;;;14.92;100.00;99314.84;1654884;86;20988;-67
2021/09/03 06:52:14;;;;;;;5.33;1.12;;;;;;;15.03;100.00;99302.66;1655155;86;20928;-67
2021/09/03 06:54:45;;;;;;;1.92;1.20;;;;;;;15.16;100.00;99310.81;1654984;86;20920;-67
2021/09/03 06:57:14;;;;;;;2.10;1.00;;;;;;;15.28;100.00;99310.53;1655410;86;21499;-67
2021/09/03 06:59:42;;;;;;;2.30;1.00;;;;;;;15.38;100.00;99305.88;1686194;85;20900;-67
2021/09/03 07:02:13;;;;;;;1.95;1.17;;;;;;;15.48;100.00;99315.39;1654942;86;21585;-68
2021/09/03 07:04:41;;;;;;;3.17;1.30;;;;;;;15.62;100.00;99316.46;1654916;86;20999;-67
2021/09/03 07:07:09;;;;;;;3.12;1.40;;;;;;;15.73;100.00;99317.08;1655130;86;20939;-68
2021/09/03 07:09:36;;;;;;;4.40;1.10;;;;;;;15.84;100.00;99312.82;1654879;86;21127;-67
2021/09/03 07:12:04;;;;;;;4.83;1.25;;;;;;;15.97;100.00;99314.26;1655090;86;20932;-67
2021/09/03 07:14:31;;;;;;;3.33;1.30;;;;;;;16.10;100.00;99317.52;1686181;85;20908;-68
2021/09/03 07:16:59;;;;;;;2.35;1.20;;;;;;;16.18;100.00;99311.53;1655117;86;20927;-67
2021/09/03 07:19:26;;;;;;;2.47;1.35;;;;;;;16.28;100.00;99309.92;1654893;86;20927;-67
2021/09/03 07:21:53;;;;;;;3.42;1.10;;;;;;;16.47;100.00;99300.97;1686458;85;21498;-67
2021/09/03 07:24:21;;;;;;;2.35;1.20;;;;;;;16.58;100.00;99308.23;1654833;85;20951;-68
2021/09/03 07:26:49;;;;;;;6.55;1.30;;;;;;;16.58;100.00;99308.23;1655142;86;20960;-67
2021/09/03 07:29:17;;;;;;;2.27;1.00;;;;;;;16.69;100.00;99305.30;1654902;86;21526;-67
2021/09/03 07:31:45;;;;;;;2.55;1.15;;;;;;;16.80;100.00;99305.86;1655160;86;20968;-67
2021/09/03 07:34:14;;;;;;;3.50;1.00;;;;;;;16.90;100.00;99304.68;1654876;86;21519;-67
2021/09/03 07:36:42;;;;;;;1.90;0.90;;;;;;;16.97;100.00;99308.03;1654842;86;20967;-68
2021/09/03 07:39:12;;;;;;;2.72;1.00;;;;;;;17.04;100.00;99307.43;1654866;86;21134;-67
2021/09/03 07:41:41;;;;;;;5.78;1.20;;;;;;;17.14;100.00;99307.10;1655052;86;21581;-67
2021/09/03 07:44:09;;;;;;;3.92;0.93;;;;;;;17.25;100.00;99294.78;1636909;86;20887;-67
2021/09/03 07:46:39;;;;;;;2.22;0.95;;;;;;;17.35;100.00;99299.37;1662281;85;21435;-66
2021/09/03 07:49:09;;;;;;;2.62;1.15;;;;;;;17.48;100.00;99299.39;1662485;85;20864;-67
2021/09/03 07:51:40;;;;;;;2.55;0.70;;;;;;;17.59;100.00;99302.63;1643270;86;20920;-66
2021/09/03 07:54:10;;;;;;;2.98;0.75;;;;;;;17.68;100.00;99295.69;1653099;85;20978;-66
2021/09/03 07:56:38;;;;;;;0.80;0.70;;;;;;;17.77;100.00;99295.38;1653007;85;21586;-66
2021/09/03 07:59:06;;;;;;;1.37;0.65;;;;;;;17.86;100.00;99296.41;1652992;85;21093;-67
2021/09/03 08:01:35;;;;;;;3.80;0.88;;;;;;;17.96;99.81;99295.64;1652932;85;21444;-67
2021/09/03 08:04:04;;;;;;;1.60;0.82;;;;;;;18.04;98.25;99296.28;1653099;85;21420;-67
2021/09/03 08:06:33;;;;;;;2.47;0.60;;;;;;;18.15;96.37;99290.58;1662578;86;20876;-67
2021/09/03 08:09:05;;;;;;;3.05;0.78;;;;;;;18.20;95.00;99286.82;1632340;87;21446;-67
2021/09/03 08:11:33;;;;;;;2.75;0.82;;;;;;;18.23;92.68;99284.05;1662627;85;21486;-67
2021/09/03 08:14:04;;;;;;;1.22;0.60;;;;;;;18.31;92.43;99290.91;1662082;85;20940;-67
2021/09/03 08:16:34;;;;;;;1.22;0.60;;;;;;;18.38;91.28;99286.63;1632349;86;20875;-67
2021/09/03 08:19:04;;;;;;;1.00;0.70;;;;;;;18.49;91.38;99281.81;1662584;85;21443;-67
2021/09/03 08:21:33;;;;;;;1.35;0.60;;;;;;;18.61;91.22;99282.29;1632354;86;20942;-67
2021/09/03 08:24:00;;;;;;;2.15;0.40;;;;;;;18.74;90.65;99274.26;1662738;85;21071;-67
2021/09/03 08:26:28;;;;;;;1.37;0.50;;;;;;;18.85;87.24;99268.05;1632261;86;20946;-67
2021/09/03 08:28:55;;;;;;;1.37;0.60;;;;;;;18.93;84.23;99271.80;1662741;84;20912;-67
2021/09/03 08:31:23;;;;;;;1.85;0.55;;;;;;;19.02;82.03;99270.11;1632371;87;21458;-67
2021/09/03 08:33:51;;;;;;;2.30;0.70;;;;;;;19.08;76.96;99262.72;1662918;85;21478;-67
2021/09/03 08:36:22;;;;;;;2.35;0.65;;;;;;;19.15;75.20;99271.38;1662565;85;21947;-67
2021/09/03 08:38:51;;;;;;;3.42;0.57;;;;;;;19.23;73.79;99271.94;1662679;86;20928;-67
2021/09/03 08:41:22;;;;;;;3.30;0.53;;;;;;;19.32;73.43;99272.91;1662521;85;20924;-67
2021/09/03 08:43:57;;;;;;;2.90;0.50;;;;;;;19.40;71.09;99264.15;1676217;85;20955;-68
2021/09/03 08:46:26;;;;;;;0.72;0.68;;;;;;;19.52;70.62;99264.59;1688520;85;20911;-68
2021/09/03 08:48:55;;;;;;;1.00;0.30;;;;;;;19.64;71.10;99260.97;1688619;85;21086;-67
2021/09/03 08:51:25;;;;;;;1.57;0.70;;;;;;;19.76;69.39;99261.80;1686611;83;21478;-68
2021/09/03 08:53:54;;;;;;;1.00;0.60;;;;;;;19.90;69.20;99259.92;1657222;86;21475;-69
2021/09/03 08:56:22;;;;;;;1.17;0.60;;;;;;;20.01;68.40;99258.99;1657250;85;20963;-68
2021/09/03 08:58:51;;;;;;;0.72;0.50;;;;;;;20.11;67.95;99249.62;1657290;86;21533;-68
2021/09/03 09:01:20;;;;;;;1.72;0.70;;;;;;;20.20;66.15;99253.70;1657290;85;21067;-68
2021/09/03 09:03:50;;;;;;;0.90;0.53;;;;;;;20.28;64.60;99256.05;1657207;86;21078;-68
2021/09/03 09:06:26;;;;;;;1.40;0.60;;;;;;;20.34;62.66;99247.78;1657173;86;21083;-68
2021/09/03 09:08:57;;;;;;;3.72;0.85;;;;;;;20.42;62.73;99251.02;1657168;86;21007;-67
2021/09/03 09:11:29;;;;;;;0.85;0.55;;;;;;;20.51;62.80;99251.08;1657215;86;21444;-69
2021/09/03 09:14:03;;;;;;;;;;;;;;;20.56;61.33;99245.91;1659827;85;21109;-69
2021/09/03 09:16:34;;;;;;;0.90;0.57;;;;;;;20.61;61.61;99246.57;1656952;85;20096;-67
2021/09/03 09:19:06;;;;;;;1.80;0.50;;;;;;;20.64;60.37;99245.09;1657258;86;20964;-69
2021/09/03 09:21:39;;;;;;;0.72;0.45;;;;;;;20.69;59.24;99234.16;1656988;86;20927;-67
2021/09/03 09:24:20;;;;;;;1.52;0.62;;;;;;;20.72;58.48;99233.55;1657459;86;20924;-67
2021/09/03 09:26:58;;;;;;;0.72;0.50;;;;;;;20.78;58.58;99227.50;1656984;86;21111;-67
2021/09/03 09:29:31;;;;;;;1.40;0.68;;;;;;;20.82;58.69;99230.47;1657481;85;20892;-67
2021/09/03 09:32:09;;;;;;;0.45;0.45;;;;;;;20.82;57.91;99229.13;1657051;86;21474;-67
2021/09/03 09:34:44;;;;;;;0.95;0.47;;;;;;;20.91;58.58;99230.91;1656316;85;21455;-69
2021/09/03 09:37:18;;;;;;;1.12;0.40;;;;;;;21.03;57.94;99221.41;1654414;86;21495;-69
2021/09/03 09:39:57;;;;;;;1.45;0.68;;;;;;;21.14;57.31;99222.24;1657202;85;21411;-69
2021/09/03 09:42:29;;;;;;;2.47;0.50;;;;;;;21.24;57.97;99212.37;1656986;86;20987;-69
2021/09/03 09:45:13;;;;;;;1.15;0.60;;;;;;;21.35;57.27;99210.53;1656963;85;20971;-69
2021/09/03 09:47:43;;;;;;;0.93;0.47;;;;;;;21.42;55.38;99211.10;1657217;85;21439;-69
2021/09/03 09:50:30;;;;;;;2.10;0.53;;;;;;;21.49;55.06;99217.91;1657176;86;20955;-69
2021/09/03 09:53:11;;;;;;;0.90;0.50;;;;;;;21.48;53.13;99216.17;1657066;86;22000;-69
2021/09/03 09:55:40;;;;;;;1.17;0.55;;;;;;;21.38;52.22;99218.44;1657357;86;20920;-69
2021/09/03 09:58:10;;;;;;;1.02;0.53;;;;;;;21.28;51.94;99213.95;1657061;86;21423;-69
2021/09/03 10:00:38;;;;;;;0.93;0.57;;;;;;;21.26;52.86;99201.56;1657492;85;21450;-69
2021/09/03 10:03:05;;;;;;;0.80;0.50;;;;;;;21.28;52.32;99198.33;1657230;85;20968;-69
2021/09/03 10:05:33;;;;;;;1.50;0.72;;;;;;;21.25;52.16;99204.72;1657243;86;21092;-69
2021/09/03 10:08:01;;;;;;;2.15;0.55;;;;;;;21.24;52.28;99201.64;1668053;85;21415;-69
2021/09/03 10:10:29;;;;;;;1.72;0.50;;;;;;;21.31;53.17;99198.22;1657130;86;21003;-69
2021/09/03 10:13:00;;;;;;;1.95;0.50;;;;;;;21.40;53.19;99196.89;1656901;86;21003;-69
2021/09/03 10:15:28;;;;;;;1.30;0.53;;;;;;;21.45;52.71;99196.19;1657196;86;21019;-68
2021/09/03 10:18:00;;;;;;;2.17;0.60;;;;;;;21.49;52.79;99196.44;1657018;86;20951;-69
2021/09/03 10:20:30;;;;;;;1.98;0.60;;;;;;;21.54;53.07;99199.76;1657180;85;21463;-68
2021/09/03 10:22:57;;;;;;;1.37;0.80;;;;;;;21.59;52.59;99191.00;1656987;86;21502;-69
2021/09/03 10:25:31;;;;;;;0.98;0.70;;;;;;;21.61;52.77;99187.30;1657399;85;21475;-69
2021/09/03 10:28:07;;;;;;;1.25;0.78;;;;;;;21.62;52.48;99182.32;1636358;86;21011;-68
2021/09/03 10:30:39;;;;;;;3.60;1.65;;;;;;;21.61;51.72;99175.69;1657132;85;21431;-68
2021/09/03 10:33:12;;;;;;;4.50;2.95;;;;;;;21.58;51.35;99170.47;1657048;86;20884;-69
2021/09/03 10:35:41;;;;;;;1.47;1.00;;;;;;;21.55;51.30;99173.31;1657201;85;21471;-68
2021/09/03 10:38:34;;;;;;;1.45;0.68;;;;;;;21.58;52.10;99168.66;1656961;85;21434;-69
2021/09/03 10:41:02;;;;;;;1.42;0.70;;;;;;;21.64;51.87;99164.80;1657181;86;20971;-69
2021/09/03 10:43:46;;;;;;;1.05;0.60;;;;;;;21.75;51.68;99175.85;1656623;84;21913;-68
2021/09/03 10:46:15;;;;;;;3.52;1.02;;;;;;;21.78;50.23;99170.83;1654750;86;20900;-69
2021/09/03 10:48:50;;;;;;;1.65;1.10;;;;;;;21.78;50.34;99162.78;1624966;87;21492;-69
2021/09/03 10:51:36;;;;;;;3.05;0.88;;;;;;;21.78;50.59;99177.55;1624853;87;20963;-69
2021/09/03 10:54:17;;;;;;;2.75;1.00;;;;;;;21.78;50.35;99170.36;1623959;87;20880;-69
2021/09/03 10:56:56;;;;;;;2.37;1.05;;;;;;;21.84;50.55;99169.17;1615787;88;21182;-69
2021/09/03 10:59:23;;;;;;;3.20;0.90;;;;;;;21.82;49.51;99167.91;1615904;88;20964;-69
2021/09/03 11:01:53;;;;;;;2.70;0.82;;;;;;;21.75;49.07;99160.22;1615729;88;20932;-69
2021/09/03 11:04:23;;;;;;;1.60;0.78;;;;;;;21.69;48.68;99164.08;1655016;85;20920;-69
2021/09/03 11:07:00;;;;;;;1.92;0.93;;;;;;;21.68;49.63;99165.03;1654897;85;20905;-69
2021/09/03 11:09:29;;;;;;;2.77;0.93;;;;;;;21.70;49.63;99155.08;1624449;87;21086;-69
2021/09/03 11:12:05;;;;;;;1.50;0.93;;;;;;;21.77;50.68;99156.53;1654706;85;21443;-68
2021/09/03 11:14:35;;;;;;;1.82;0.50;;;;;;;21.90;52.09;99163.00;1654989;85;21550;-68
2021/09/03 11:17:13;;;;;;;1.52;0.72;;;;;;;22.08;51.89;99157.65;1653607;85;20963;-69
2021/09/03 11:19:50;;;;;;;1.52;0.82;;;;;;;22.27;52.24;99152.59;1625103;88;20875;-70
2021/09/03 11:22:21;;;;;;;3.50;1.12;;;;;;;22.39;50.12;99151.05;1654205;85;21083;-69
2021/09/03 11:25:06;;;;;;;1.57;0.80;;;;;;;22.33;47.88;99149.17;1625160;87;21442;-69
2021/09/03 11:27:35;;;;;;;3.85;1.05;;;;;;;22.26;48.10;99144.61;1654940;85;21000;-69
2021/09/03 11:30:16;;;;;;;1.57;1.10;;;;;;;22.22;47.55;99144.34;1625210;87;21029;-68
2021/09/03 11:32:44;;;;;;;2.58;0.90;;;;;;;22.19;47.93;99139.14;1625022;88;20959;-69
2021/09/03 11:35:13;;;;;;;3.33;0.90;;;;;;;22.28;49.08;99141.36;1588273;87;21120;-68
2021/09/03 11:37:48;;;;;;;6.30;0.98;;;;;;;22.42;49.79;99135.23;1624965;87;21442;-69
2021/09/03 11:40:30;;;;;;;1.60;0.80;;;;;;;22.62;50.46;99133.19;1624751;87;21032;-69
2021/09/03 11:43:03;;;;;;;2.40;1.07;;;;;;;22.82;49.63;99130.79;1624956;87;20888;-69